createdAt,value
2017-06-19T00:00:18.392Z,1014.57
2017-06-19T00:01:18.383Z,1014.54
2017-06-19T00:02:18.375Z,1014.53
2017-06-19T00:03:18.367Z,1014.48
2017-06-19T00:04:18.357Z,1014.49
2017-06-19T00:05:18.351Z,1014.53
2017-06-19T00:06:18.340Z,1014.51
2017-06-19T00:07:18.331Z,1014.52
2017-06-19T00:08:18.322Z,1014.51
2017-06-19T00:09:18.314Z,1014.5
2017-06-19T00:10:18.304Z,1014.49
2017-06-19T00:11:18.295Z,1014.51
2017-06-19T00:12:18.287Z,1014.47
2017-06-19T00:13:18.281Z,1014.48
2017-06-19T00:14:18.269Z,1014.46
2017-06-19T00:15:18.259Z,1014.44
2017-06-19T00:16:18.251Z,1014.43
2017-06-19T00:17:18.242Z,1014.41
2017-06-19T00:18:18.234Z,1014.41
2017-06-19T00:19:18.227Z,1014.42
2017-06-19T00:20:18.216Z,1014.44
2017-06-19T00:21:18.206Z,1014.44
2017-06-19T00:22:18.196Z,1014.43
2017-06-19T00:23:18.187Z,1014.41
2017-06-19T00:24:18.181Z,1014.44
2017-06-19T00:25:18.172Z,1014.44
2017-06-19T00:26:18.162Z,1014.42
2017-06-19T00:27:18.154Z,1014.39
2017-06-19T00:28:18.143Z,1014.42
2017-06-19T00:29:18.140Z,1014.41
2017-06-19T00:30:18.124Z,1014.41
2017-06-19T00:31:18.115Z,1014.43
2017-06-19T00:32:18.107Z,1014.44
2017-06-19T00:33:18.097Z,1014.45
2017-06-19T00:34:18.088Z,1014.45
2017-06-19T00:35:18.081Z,1014.45
2017-06-19T00:36:18.071Z,1014.46
2017-06-19T00:37:18.060Z,1014.43
2017-06-19T00:38:18.052Z,1014.43
2017-06-19T00:39:18.044Z,1014.45
2017-06-19T00:40:18.036Z,1014.47
2017-06-19T00:41:18.025Z,1014.41
2017-06-19T00:42:18.017Z,1014.42
2017-06-19T00:43:18.009Z,1014.48
2017-06-19T00:44:17.999Z,1014.48
2017-06-19T00:45:17.995Z,1014.44
2017-06-19T00:46:17.979Z,1014.43
2017-06-19T00:47:17.970Z,1014.46
2017-06-19T00:48:17.960Z,1014.43
2017-06-19T00:49:17.953Z,1014.43
2017-06-19T00:50:17.942Z,1014.42
2017-06-19T00:51:17.944Z,1014.4
2017-06-19T00:52:17.927Z,1014.37
2017-06-19T00:53:17.916Z,1014.39
2017-06-19T00:54:17.909Z,1014.42
2017-06-19T00:55:17.898Z,1014.38
2017-06-19T00:56:17.888Z,1014.41
2017-06-19T00:57:17.881Z,1014.42
2017-06-19T00:58:17.869Z,1014.41
2017-06-19T00:59:17.861Z,1014.37
2017-06-19T01:00:17.850Z,1014.35
2017-06-19T01:01:17.840Z,1014.4
2017-06-19T01:02:17.833Z,1014.33
2017-06-19T01:03:17.822Z,1014.37
2017-06-19T01:04:17.813Z,1014.3
2017-06-19T01:05:17.803Z,1014.34
2017-06-19T01:06:17.794Z,1014.37
2017-06-19T01:07:17.786Z,1014.36
2017-06-19T01:08:17.775Z,1014.36
2017-06-19T01:09:17.766Z,1014.36
2017-06-19T01:10:17.758Z,1014.32
2017-06-19T01:11:17.748Z,1014.32
2017-06-19T01:12:17.740Z,1014.32
2017-06-19T01:13:17.742Z,1014.34
2017-06-19T01:14:17.720Z,1014.33
2017-06-19T01:15:17.710Z,1014.3
2017-06-19T01:16:17.701Z,1014.28
2017-06-19T01:17:17.693Z,1014.32
2017-06-19T01:18:17.682Z,1014.26
2017-06-19T01:19:17.672Z,1014.28
2017-06-19T01:20:17.665Z,1014.23
2017-06-19T01:21:17.655Z,1014.25
2017-06-19T01:22:17.645Z,1014.27
2017-06-19T01:23:17.635Z,1014.25
2017-06-19T01:24:17.629Z,1014.24
2017-06-19T01:25:17.616Z,1014.28
2017-06-19T01:26:17.611Z,1014.24
2017-06-19T01:27:17.599Z,1014.21
2017-06-19T01:28:17.590Z,1014.2
2017-06-19T01:29:17.781Z,1014.21
2017-06-19T01:30:17.572Z,1014.21
2017-06-19T01:31:17.561Z,1014.2
2017-06-19T01:32:17.550Z,1014.22
2017-06-19T01:33:17.541Z,1014.23
2017-06-19T01:34:17.534Z,1014.24
2017-06-19T01:35:17.521Z,1014.22
2017-06-19T01:36:17.512Z,1014.2
2017-06-19T01:37:17.504Z,1014.22
2017-06-19T01:38:17.493Z,1014.18
2017-06-19T01:39:17.484Z,1014.22
2017-06-19T01:40:17.474Z,1014.21
2017-06-19T01:41:17.464Z,1014.18
2017-06-19T01:42:17.456Z,1014.2
2017-06-19T01:43:17.446Z,1014.23
2017-06-19T01:44:17.435Z,1014.18
2017-06-19T01:45:17.427Z,1014.2
2017-06-19T01:46:17.416Z,1014.17
2017-06-19T01:47:17.408Z,1014.17
2017-06-19T01:48:17.397Z,1014.12
2017-06-19T01:49:17.391Z,1014.15
2017-06-19T01:50:17.380Z,1014.15
2017-06-19T01:51:17.369Z,1014.15
2017-06-19T01:52:17.358Z,1014.11
2017-06-19T01:53:17.353Z,1014.1
2017-06-19T01:54:17.339Z,1014.09
2017-06-19T01:55:17.330Z,1014.07
2017-06-19T01:56:17.321Z,1014.07
2017-06-19T01:57:17.310Z,1014.07
2017-06-19T01:58:17.301Z,1014.04
2017-06-19T01:59:17.291Z,1014.04
2017-06-19T02:00:17.282Z,1014.03
2017-06-19T02:01:17.271Z,1014.03
2017-06-19T02:02:17.262Z,1014.04
2017-06-19T02:03:17.254Z,1013.99
2017-06-19T02:04:17.243Z,1014.01
2017-06-19T02:05:17.233Z,1014.01
2017-06-19T02:06:17.225Z,1013.99
2017-06-19T02:07:17.216Z,1014
2017-06-19T02:08:17.205Z,1013.99
2017-06-19T02:09:17.194Z,1014
2017-06-19T02:10:17.185Z,1013.99
2017-06-19T02:11:17.175Z,1013.97
2017-06-19T02:12:17.165Z,1014
2017-06-19T02:13:17.156Z,1013.99
2017-06-19T02:14:17.148Z,1014.01
2017-06-19T02:15:17.136Z,1013.98
2017-06-19T02:16:17.126Z,1013.99
2017-06-19T02:17:17.116Z,1014.01
2017-06-19T02:18:17.106Z,1013.96
2017-06-19T02:19:17.098Z,1013.97
2017-06-19T02:20:17.090Z,1013.95
2017-06-19T02:21:17.078Z,1013.98
2017-06-19T02:22:17.068Z,1013.94
2017-06-19T02:23:17.059Z,1013.94
2017-06-19T02:24:17.050Z,1013.97
2017-06-19T02:25:17.041Z,1013.98
2017-06-19T02:26:17.029Z,1013.96
2017-06-19T02:27:17.018Z,1013.92
2017-06-19T02:28:17.012Z,1013.99
2017-06-19T02:29:17.000Z,1013.98
2017-06-19T02:30:16.990Z,1014.02
2017-06-19T02:31:16.980Z,1014
2017-06-19T02:32:16.970Z,1014.02
2017-06-19T02:33:16.961Z,1013.99
2017-06-19T02:34:17.027Z,1013.99
2017-06-19T02:35:16.941Z,1014.01
2017-06-19T02:36:16.931Z,1013.99
2017-06-19T02:37:16.925Z,1013.99
2017-06-19T02:38:16.911Z,1014.03
2017-06-19T02:39:16.901Z,1014
2017-06-19T02:40:16.893Z,1014.02
2017-06-19T02:41:16.881Z,1014.01
2017-06-19T02:42:16.873Z,1014
2017-06-19T02:43:16.862Z,1014.02
2017-06-19T02:44:16.851Z,1014.02
2017-06-19T02:45:16.840Z,1014.03
2017-06-19T02:46:16.832Z,1014.03
2017-06-19T02:47:16.822Z,1014.04
2017-06-19T02:48:16.847Z,1013.99
2017-06-19T02:49:16.802Z,1014.03
2017-06-19T02:50:16.792Z,1014.02
2017-06-19T02:51:16.783Z,1014
2017-06-19T02:52:16.773Z,1014.04
2017-06-19T02:53:16.763Z,1014
2017-06-19T02:54:16.753Z,1013.97
2017-06-19T02:55:16.743Z,1014.01
2017-06-19T02:56:16.733Z,1013.95
2017-06-19T02:57:16.723Z,1013.97
2017-06-19T02:58:16.714Z,1014
2017-06-19T02:59:16.704Z,1013.99
2017-06-19T03:00:16.694Z,1013.95
2017-06-19T03:01:16.684Z,1013.92
2017-06-19T03:02:16.675Z,1013.94
2017-06-19T03:03:16.664Z,1013.93
2017-06-19T03:04:16.654Z,1013.92
2017-06-19T03:05:16.645Z,1013.88
2017-06-19T03:06:16.636Z,1013.92
2017-06-19T03:07:16.623Z,1013.89
2017-06-19T03:08:16.614Z,1013.93
2017-06-19T03:09:16.608Z,1013.93
2017-06-19T03:10:16.595Z,1013.94
2017-06-19T03:11:16.584Z,1013.93
2017-06-19T03:12:16.625Z,1013.9
2017-06-19T03:13:16.569Z,1013.88
2017-06-19T03:14:16.554Z,1013.9
2017-06-19T03:15:16.544Z,1013.91
2017-06-19T03:16:16.534Z,1013.88
2017-06-19T03:17:16.530Z,1013.89
2017-06-19T03:18:16.513Z,1013.87
2017-06-19T03:19:16.504Z,1013.91
2017-06-19T03:20:16.493Z,1013.87
2017-06-19T03:21:16.485Z,1013.79
2017-06-19T03:22:16.488Z,1013.83
2017-06-19T03:23:16.463Z,1013.79
2017-06-19T03:24:16.456Z,1013.81
2017-06-19T03:25:16.441Z,1013.81
2017-06-19T03:26:16.431Z,1013.8
2017-06-19T03:27:16.421Z,1013.76
2017-06-19T03:28:16.412Z,1013.75
2017-06-19T03:29:16.603Z,1013.75
2017-06-19T03:30:16.394Z,1013.74
2017-06-19T03:31:16.385Z,1013.73
2017-06-19T03:32:16.370Z,1013.71
2017-06-19T03:33:16.361Z,1013.7
2017-06-19T03:34:16.350Z,1013.72
2017-06-19T03:35:16.342Z,1013.69
2017-06-19T03:36:16.331Z,1013.66
2017-06-19T03:37:16.320Z,1013.7
2017-06-19T03:38:16.309Z,1013.69
2017-06-19T03:39:16.299Z,1013.67
2017-06-19T03:40:16.289Z,1013.67
2017-06-19T03:41:16.280Z,1013.67
2017-06-19T03:42:16.269Z,1013.7
2017-06-19T03:43:16.258Z,1013.67
2017-06-19T03:44:16.248Z,1013.67
2017-06-19T03:45:16.238Z,1013.67
2017-06-19T03:46:16.228Z,1013.65
2017-06-19T03:47:16.219Z,1013.63
2017-06-19T03:48:16.209Z,1013.64
2017-06-19T03:49:16.201Z,1013.63
2017-06-19T03:50:16.188Z,1013.62
2017-06-19T03:51:16.177Z,1013.67
2017-06-19T03:52:16.168Z,1013.63
2017-06-19T03:53:16.157Z,1013.68
2017-06-19T03:54:16.146Z,1013.63
2017-06-19T03:55:16.138Z,1013.69
2017-06-19T03:56:16.126Z,1013.67
2017-06-19T03:57:16.117Z,1013.67
2017-06-19T03:58:16.106Z,1013.66
2017-06-19T03:59:16.096Z,1013.69
2017-06-19T04:00:16.097Z,1013.7
2017-06-19T04:01:16.077Z,1013.75
2017-06-19T04:02:16.073Z,1013.76
2017-06-19T04:03:16.105Z,1013.75
2017-06-19T04:04:16.045Z,1013.78
2017-06-19T04:05:16.036Z,1013.77
2017-06-19T04:06:16.037Z,1013.78
2017-06-19T04:07:16.015Z,1013.76
2017-06-19T04:08:16.014Z,1013.8
2017-06-19T04:09:16.012Z,1013.8
2017-06-19T04:10:16.004Z,1013.76
2017-06-19T04:11:16.003Z,1013.8
2017-06-19T04:12:16.004Z,1013.77
2017-06-19T04:13:15.954Z,1013.77
2017-06-19T04:14:15.944Z,1013.77
2017-06-19T04:15:15.933Z,1013.79
2017-06-19T04:16:15.924Z,1013.78
2017-06-19T04:17:15.914Z,1013.8
2017-06-19T04:18:15.904Z,1013.81
2017-06-19T04:19:15.894Z,1013.79
2017-06-19T04:20:15.884Z,1013.77
2017-06-19T04:21:15.874Z,1013.8
2017-06-19T04:22:15.864Z,1013.78
2017-06-19T04:23:15.856Z,1013.8
2017-06-19T04:24:15.844Z,1013.82
2017-06-19T04:25:15.834Z,1013.8
2017-06-19T04:26:15.824Z,1013.82
2017-06-19T04:27:15.815Z,1013.81
2017-06-19T04:28:15.805Z,1013.84
2017-06-19T04:29:15.793Z,1013.8
2017-06-19T04:30:15.784Z,1013.78
2017-06-19T04:31:15.776Z,1013.78
2017-06-19T04:32:15.764Z,1013.76
2017-06-19T04:33:15.755Z,1013.79
2017-06-19T04:34:15.745Z,1013.78
2017-06-19T04:35:15.735Z,1013.79
2017-06-19T04:36:15.728Z,1013.75
2017-06-19T04:37:15.719Z,1013.8
2017-06-19T04:38:15.706Z,1013.76
2017-06-19T04:39:15.697Z,1013.77
2017-06-19T04:40:15.716Z,1013.77
2017-06-19T04:41:15.677Z,1013.78
2017-06-19T04:42:15.668Z,1013.8
2017-06-19T04:43:15.658Z,1013.77
2017-06-19T04:44:15.649Z,1013.78
2017-06-19T04:45:15.637Z,1013.74
2017-06-19T04:46:15.629Z,1013.69
2017-06-19T04:47:15.619Z,1013.7
2017-06-19T04:48:15.609Z,1013.7
2017-06-19T04:49:15.600Z,1013.65
2017-06-19T04:50:15.590Z,1013.67
2017-06-19T04:51:15.580Z,1013.64
2017-06-19T04:52:15.573Z,1013.64
2017-06-19T04:53:15.561Z,1013.6
2017-06-19T04:54:15.552Z,1013.61
2017-06-19T04:55:15.541Z,1013.61
2017-06-19T04:56:15.532Z,1013.62
2017-06-19T04:57:15.521Z,1013.62
2017-06-19T04:58:15.513Z,1013.57
2017-06-19T04:59:15.505Z,1013.59
2017-06-19T05:00:15.493Z,1013.62
2017-06-19T05:01:15.484Z,1013.63
2017-06-19T05:02:15.475Z,1013.6
2017-06-19T05:03:15.466Z,1013.62
2017-06-19T05:04:15.455Z,1013.64
2017-06-19T05:05:15.445Z,1013.64
2017-06-19T05:06:15.437Z,1013.66
2017-06-19T05:07:15.428Z,1013.63
2017-06-19T05:08:15.417Z,1013.65
2017-06-19T05:09:15.408Z,1013.68
2017-06-19T05:10:15.399Z,1013.67
2017-06-19T05:11:15.388Z,1013.68
2017-06-19T05:12:15.381Z,1013.67
2017-06-19T05:13:15.370Z,1013.69
2017-06-19T05:14:15.361Z,1013.69
2017-06-19T05:15:15.351Z,1013.67
2017-06-19T05:16:15.342Z,1013.68
2017-06-19T05:17:15.333Z,1013.66
2017-06-19T05:18:15.323Z,1013.68
2017-06-19T05:19:15.314Z,1013.64
2017-06-19T05:20:15.305Z,1013.65
2017-06-19T05:21:15.296Z,1013.67
2017-06-19T05:22:15.286Z,1013.65
2017-06-19T05:23:15.279Z,1013.69
2017-06-19T05:24:15.267Z,1013.7
2017-06-19T05:25:15.260Z,1013.72
2017-06-19T05:26:15.248Z,1013.71
2017-06-19T05:27:15.239Z,1013.73
2017-06-19T05:28:15.230Z,1013.75
2017-06-19T05:29:15.423Z,1013.72
2017-06-19T05:30:15.213Z,1013.73
2017-06-19T05:31:15.203Z,1013.76
2017-06-19T05:32:15.194Z,1013.79
2017-06-19T05:33:15.185Z,1013.79
2017-06-19T05:34:15.176Z,1013.76
2017-06-19T05:35:15.167Z,1013.77
2017-06-19T05:36:15.157Z,1013.82
2017-06-19T05:37:15.148Z,1013.77
2017-06-19T05:38:15.140Z,1013.8
2017-06-19T05:39:15.132Z,1013.81
2017-06-19T05:40:15.123Z,1013.79
2017-06-19T05:41:15.113Z,1013.8
2017-06-19T05:42:15.103Z,1013.81
2017-06-19T05:43:15.094Z,1013.81
2017-06-19T05:44:15.085Z,1013.83
2017-06-19T05:45:15.080Z,1013.83
2017-06-19T05:46:15.067Z,1013.87
2017-06-19T05:47:15.059Z,1013.81
2017-06-19T05:48:15.048Z,1013.83
2017-06-19T05:49:15.042Z,1013.86
2017-06-19T05:50:15.032Z,1013.91
2017-06-19T05:51:15.022Z,1013.89
2017-06-19T05:52:15.013Z,1013.92
2017-06-19T05:53:15.005Z,1013.88
2017-06-19T05:54:14.997Z,1013.91
2017-06-19T05:55:14.988Z,1013.9
2017-06-19T05:56:14.982Z,1013.87
2017-06-19T05:57:14.972Z,1013.88
2017-06-19T05:58:14.963Z,1013.86
2017-06-19T05:59:14.953Z,1013.88
2017-06-19T06:00:14.944Z,1013.92
2017-06-19T06:01:14.936Z,1013.87
2017-06-19T06:02:14.927Z,1013.85
2017-06-19T06:03:14.919Z,1013.86
2017-06-19T06:04:14.910Z,1013.89
2017-06-19T06:05:14.903Z,1013.86
2017-06-19T06:06:14.892Z,1013.88
2017-06-19T06:07:14.887Z,1013.88
2017-06-19T06:08:14.878Z,1013.91
2017-06-19T06:09:14.867Z,1013.94
2017-06-19T06:10:14.860Z,1013.93
2017-06-19T06:11:14.852Z,1013.92
2017-06-19T06:12:14.843Z,1013.92
2017-06-19T06:13:14.834Z,1013.91
2017-06-19T06:14:14.825Z,1013.91
2017-06-19T06:15:14.818Z,1013.88
2017-06-19T06:16:14.809Z,1013.95
2017-06-19T06:17:14.801Z,1013.98
2017-06-19T06:18:14.792Z,1014.06
2017-06-19T06:19:14.785Z,1014.06
2017-06-19T06:20:14.778Z,1014.06
2017-06-19T06:21:14.770Z,1014.05
2017-06-19T06:22:14.762Z,1014.09
2017-06-19T06:23:14.757Z,1014.12
2017-06-19T06:24:14.748Z,1014.05
2017-06-19T06:25:14.742Z,1013.92
2017-06-19T06:26:14.738Z,1013.87
2017-06-19T06:27:14.729Z,1013.86
2017-06-19T06:28:14.723Z,1013.9
2017-06-19T06:29:14.717Z,1013.9
2017-06-19T06:30:14.710Z,1013.88
2017-06-19T06:31:14.703Z,1013.92
2017-06-19T06:32:14.696Z,1013.9
2017-06-19T06:33:14.690Z,1013.89
2017-06-19T06:34:14.682Z,1013.88
2017-06-19T06:35:14.677Z,1013.91
2017-06-19T06:36:14.669Z,1013.87
2017-06-19T06:37:14.662Z,1013.87
2017-06-19T06:38:14.656Z,1013.89
2017-06-19T06:39:14.649Z,1013.89
2017-06-19T06:40:14.643Z,1013.89
2017-06-19T06:41:14.637Z,1013.91
2017-06-19T06:42:14.628Z,1013.91
2017-06-19T06:43:14.621Z,1013.97
2017-06-19T06:44:14.614Z,1014.09
2017-06-19T06:45:14.609Z,1014.25
2017-06-19T06:46:14.602Z,1014.26
2017-06-19T06:47:14.594Z,1014.21
2017-06-19T06:48:14.588Z,1014.21
2017-06-19T06:49:14.582Z,1014.14
2017-06-19T06:50:14.576Z,1014.05
2017-06-19T06:51:14.582Z,1013.94
2017-06-19T06:52:14.566Z,1013.95
2017-06-19T06:53:14.560Z,1013.96
2017-06-19T06:54:14.555Z,1013.93
2017-06-19T06:55:14.550Z,1013.9
2017-06-19T06:56:14.546Z,1013.91
2017-06-19T06:57:14.540Z,1013.92
2017-06-19T06:58:14.536Z,1013.89
2017-06-19T06:59:14.530Z,1013.95
2017-06-19T07:00:14.524Z,1013.98
2017-06-19T07:01:14.519Z,1014.03
2017-06-19T07:02:14.513Z,1014
2017-06-19T07:03:14.509Z,1013.89
2017-06-19T07:04:14.501Z,1013.89
2017-06-19T07:05:14.497Z,1013.9
2017-06-19T07:06:14.492Z,1013.88
2017-06-19T07:07:14.486Z,1013.89
2017-06-19T07:08:14.483Z,1013.92
2017-06-19T07:09:14.477Z,1013.92
2017-06-19T07:10:14.471Z,1013.9
2017-06-19T07:11:14.467Z,1013.91
2017-06-19T07:12:14.460Z,1013.94
2017-06-19T07:13:14.454Z,1013.95
2017-06-19T07:14:14.449Z,1014.05
2017-06-19T07:15:14.445Z,1014.12
2017-06-19T07:16:14.440Z,1014.18
2017-06-19T07:17:14.435Z,1014.2
2017-06-19T07:18:14.429Z,1014.17
2017-06-19T07:19:14.424Z,1014.17
2017-06-19T07:20:14.419Z,1014.23
2017-06-19T07:21:14.415Z,1014.22
2017-06-19T07:22:14.413Z,1014.21
2017-06-19T07:23:14.408Z,1014.29
2017-06-19T07:24:14.404Z,1014.26
2017-06-19T07:25:14.400Z,1014.27
2017-06-19T07:26:14.396Z,1014.26
2017-06-19T07:27:14.395Z,1014.23
2017-06-19T07:28:14.393Z,1014.25
2017-06-19T07:29:14.393Z,1014.29
2017-06-19T07:30:14.389Z,1014.22
2017-06-19T07:31:14.387Z,1014.24
2017-06-19T07:32:14.385Z,1014.23
2017-06-19T07:33:14.387Z,1014.27
2017-06-19T07:34:14.382Z,1014.28
2017-06-19T07:35:14.381Z,1014.27
2017-06-19T07:36:14.382Z,1014.3
2017-06-19T07:37:14.381Z,1014.31
2017-06-19T07:38:14.380Z,1014.25
2017-06-19T07:39:14.380Z,1014.27
2017-06-19T07:40:14.379Z,1014.27
2017-06-19T07:41:14.380Z,1014.26
2017-06-19T07:42:14.379Z,1014.23
2017-06-19T07:43:14.380Z,1014.24
2017-06-19T07:44:14.382Z,1014.25
2017-06-19T07:45:14.382Z,1014.23
2017-06-19T07:46:14.382Z,1014.27
2017-06-19T07:47:14.385Z,1014.27
2017-06-19T07:48:14.384Z,1014.3
2017-06-19T07:49:14.386Z,1014.25
2017-06-19T07:50:14.387Z,1014.28
2017-06-19T07:51:14.390Z,1014.29
2017-06-19T07:52:14.389Z,1014.26
2017-06-19T07:53:14.392Z,1014.28
2017-06-19T07:54:14.393Z,1014.28
2017-06-19T07:55:14.395Z,1014.29
2017-06-19T07:56:14.396Z,1014.31
2017-06-19T07:57:14.398Z,1014.28
2017-06-19T07:58:14.400Z,1014.24
2017-06-19T07:59:14.401Z,1014.24
2017-06-19T08:00:14.404Z,1014.19
2017-06-19T08:01:14.409Z,1014.2
2017-06-19T08:02:14.408Z,1014.19
2017-06-19T08:03:14.411Z,1014.15
2017-06-19T08:04:14.414Z,1014.15
2017-06-19T08:05:14.415Z,1014.16
2017-06-19T08:06:14.416Z,1014.13
2017-06-19T08:07:14.419Z,1014.19
2017-06-19T08:08:14.421Z,1014.1
2017-06-19T08:09:14.425Z,1014.1
2017-06-19T08:10:14.426Z,1014.1
2017-06-19T08:11:14.428Z,1014.12
2017-06-19T08:12:14.432Z,1014.09
2017-06-19T08:13:14.434Z,1014.09
2017-06-19T08:14:14.435Z,1014.08
2017-06-19T08:15:14.438Z,1014.09
2017-06-19T08:16:14.442Z,1014.05
2017-06-19T08:17:14.443Z,1014.06
2017-06-19T08:18:14.446Z,1014.05
2017-06-19T08:19:14.450Z,1014.05
2017-06-19T08:20:14.453Z,1014.07
2017-06-19T08:21:14.455Z,1014.04
2017-06-19T08:22:14.459Z,1014.04
2017-06-19T08:23:14.465Z,1014.08
2017-06-19T08:24:14.464Z,1014.09
2017-06-19T08:25:14.468Z,1014.11
2017-06-19T08:26:14.471Z,1014.06
2017-06-19T08:27:14.477Z,1014.09
2017-06-19T08:28:14.477Z,1014.08
2017-06-19T08:29:14.483Z,1014.06
2017-06-19T08:30:14.485Z,1014.06
2017-06-19T08:31:14.487Z,1014.06
2017-06-19T08:32:14.493Z,1014.06
2017-06-19T08:33:14.495Z,1014.04
2017-06-19T08:34:14.499Z,1014.04
2017-06-19T08:35:14.503Z,1014.07
2017-06-19T08:36:14.507Z,1014.07
2017-06-19T08:37:14.509Z,1014.11
2017-06-19T08:38:14.514Z,1014.09
2017-06-19T08:39:14.517Z,1014.13
2017-06-19T08:40:14.521Z,1014.15
2017-06-19T08:41:14.526Z,1014.15
2017-06-19T08:42:14.530Z,1014.15
2017-06-19T08:43:14.534Z,1014.16
2017-06-19T08:44:14.535Z,1014.16
2017-06-19T08:45:14.540Z,1014.16
2017-06-19T08:46:14.545Z,1014.16
2017-06-19T08:47:14.549Z,1014.14
2017-06-19T08:48:14.554Z,1014.05
2017-06-19T08:49:14.560Z,1013.92
2017-06-19T08:50:14.561Z,1013.76
2017-06-19T08:51:14.567Z,1013.62
2017-06-19T08:52:14.569Z,1013.69
2017-06-19T08:53:14.573Z,1013.66
2017-06-19T08:54:14.578Z,1013.63
2017-06-19T08:55:14.580Z,1013.54
2017-06-19T08:56:14.584Z,1013.52
2017-06-19T08:57:14.587Z,1013.61
2017-06-19T08:58:14.590Z,1013.5
2017-06-19T08:59:14.593Z,1013.38
2017-06-19T09:00:14.597Z,1013.39
2017-06-19T09:01:14.598Z,1013.4
2017-06-19T09:02:14.600Z,1013.45
2017-06-19T09:03:14.603Z,1013.36
2017-06-19T09:04:14.607Z,1013.38
2017-06-19T09:05:14.606Z,1013.4
2017-06-19T09:06:14.610Z,1013.38
2017-06-19T09:07:14.609Z,1013.55
2017-06-19T09:08:14.611Z,1013.52
2017-06-19T09:09:14.612Z,1013.49
2017-06-19T09:10:14.613Z,1013.71
2017-06-19T09:11:14.616Z,1013.82
2017-06-19T09:12:14.617Z,1013.92
2017-06-19T09:13:14.617Z,1013.87
2017-06-19T09:14:14.618Z,1013.92
2017-06-19T09:15:14.620Z,1013.89
2017-06-19T09:16:14.621Z,1013.91
2017-06-19T09:17:14.621Z,1013.89
2017-06-19T09:18:14.624Z,1013.89
2017-06-19T09:19:14.627Z,1013.9
2017-06-19T09:20:14.628Z,1013.93
2017-06-19T09:21:14.632Z,1013.9
2017-06-19T09:22:14.634Z,1013.93
2017-06-19T09:23:14.637Z,1013.89
2017-06-19T09:24:14.639Z,1013.91
2017-06-19T09:25:14.641Z,1013.88
2017-06-19T09:26:14.645Z,1013.93
2017-06-19T09:27:14.648Z,1013.91
2017-06-19T09:28:14.652Z,1013.95
2017-06-19T09:29:14.656Z,1013.98
2017-06-19T09:30:14.861Z,1013.94
2017-06-19T09:31:14.663Z,1013.95
2017-06-19T09:32:14.667Z,1013.97
2017-06-19T09:33:14.670Z,1013.96
2017-06-19T09:34:14.674Z,1013.94
2017-06-19T09:35:14.678Z,1013.96
2017-06-19T09:36:14.684Z,1013.96
2017-06-19T09:37:14.688Z,1013.98
2017-06-19T09:38:14.692Z,1013.96
2017-06-19T09:39:14.696Z,1013.94
2017-06-19T09:40:14.702Z,1013.86
2017-06-19T09:41:14.705Z,1013.92
2017-06-19T09:42:14.712Z,1013.91
2017-06-19T09:43:14.716Z,1013.88
2017-06-19T09:44:14.720Z,1013.93
2017-06-19T09:45:14.723Z,1013.93
2017-06-19T09:46:14.729Z,1014.01
2017-06-19T09:47:14.735Z,1014.02
2017-06-19T09:48:14.738Z,1014.01
2017-06-19T09:49:14.742Z,1013.96
2017-06-19T09:50:14.750Z,1013.97
2017-06-19T09:51:14.752Z,1014.02
2017-06-19T09:52:14.756Z,1013.98
2017-06-19T09:53:14.761Z,1013.98
2017-06-19T09:54:14.765Z,1013.98
2017-06-19T09:55:14.773Z,1013.98
2017-06-19T09:56:14.775Z,1013.98
2017-06-19T09:57:14.780Z,1013.97
2017-06-19T09:58:14.786Z,1013.94
2017-06-19T09:59:14.790Z,1013.96
2017-06-19T10:00:14.793Z,1013.97
2017-06-19T10:01:14.798Z,1013.95
2017-06-19T10:02:14.802Z,1013.95
2017-06-19T10:03:14.809Z,1013.95
2017-06-19T10:04:14.813Z,1013.91
2017-06-19T10:05:14.818Z,1013.88
2017-06-19T10:06:14.824Z,1013.9
2017-06-19T10:07:14.829Z,1013.92
2017-06-19T10:08:14.834Z,1013.87
2017-06-19T10:09:14.840Z,1013.89
2017-06-19T10:10:14.844Z,1013.9
2017-06-19T10:11:14.849Z,1013.81
2017-06-19T10:12:14.855Z,1013.84
2017-06-19T10:13:14.861Z,1013.82
2017-06-19T10:14:14.863Z,1013.81
2017-06-19T10:15:14.870Z,1013.83
2017-06-19T10:16:14.876Z,1013.81
2017-06-19T10:17:14.882Z,1013.76
2017-06-19T10:18:14.884Z,1013.78
2017-06-19T10:19:14.891Z,1013.76
2017-06-19T10:20:14.897Z,1013.8
2017-06-19T10:21:14.902Z,1013.73
2017-06-19T10:22:14.907Z,1013.75
2017-06-19T10:23:14.914Z,1013.74
2017-06-19T10:24:14.917Z,1013.74
2017-06-19T10:25:14.924Z,1013.71
2017-06-19T10:26:14.930Z,1013.69
2017-06-19T10:27:14.935Z,1013.66
2017-06-19T10:28:14.942Z,1013.68
2017-06-19T10:29:14.946Z,1013.66
2017-06-19T10:30:14.954Z,1013.61
2017-06-19T10:31:14.960Z,1013.63
2017-06-19T10:32:14.965Z,1013.58
2017-06-19T10:33:14.972Z,1013.6
2017-06-19T10:34:14.979Z,1013.6
2017-06-19T10:35:14.985Z,1013.59
2017-06-19T10:36:14.989Z,1013.52
2017-06-19T10:37:14.996Z,1013.51
2017-06-19T10:38:15.003Z,1013.49
2017-06-19T10:39:15.008Z,1013.43
2017-06-19T10:40:15.016Z,1013.41
2017-06-19T10:41:15.018Z,1013.37
2017-06-19T10:42:15.026Z,1013.31
2017-06-19T10:43:15.033Z,1013.26
2017-06-19T10:44:15.037Z,1013.17
2017-06-19T10:45:15.045Z,1013.05
2017-06-19T10:46:15.051Z,1012.99
2017-06-19T10:47:15.059Z,1012.9
2017-06-19T10:48:15.062Z,1012.81
2017-06-19T10:49:15.070Z,1012.74
2017-06-19T10:50:15.077Z,1012.69
2017-06-19T10:51:15.083Z,1012.72
2017-06-19T10:52:15.094Z,1012.66
2017-06-19T10:53:15.096Z,1012.6
2017-06-19T10:54:15.103Z,1012.61
2017-06-19T10:55:15.109Z,1012.57
2017-06-19T10:56:15.116Z,1012.57
2017-06-19T10:57:15.125Z,1012.56
2017-06-19T10:58:15.128Z,1012.56
2017-06-19T10:59:15.137Z,1012.53
2017-06-19T11:00:15.142Z,1012.54
2017-06-19T11:01:15.150Z,1012.52
2017-06-19T11:02:15.156Z,1012.54
2017-06-19T11:03:15.162Z,1012.52
2017-06-19T11:04:15.168Z,1012.5
2017-06-19T11:05:15.175Z,1012.47
2017-06-19T11:06:15.181Z,1012.5
2017-06-19T11:07:15.188Z,1012.47
2017-06-19T11:08:15.195Z,1012.42
2017-06-19T11:09:15.203Z,1012.44
2017-06-19T11:10:15.209Z,1012.45
2017-06-19T11:11:15.217Z,1012.48
2017-06-19T11:12:15.224Z,1012.45
2017-06-19T11:13:15.229Z,1012.47
2017-06-19T11:14:15.238Z,1012.45
2017-06-19T11:15:15.243Z,1012.47
2017-06-19T11:16:15.250Z,1012.47
2017-06-19T11:17:15.256Z,1012.47
2017-06-19T11:18:15.264Z,1012.44
2017-06-19T11:19:15.272Z,1012.47
2017-06-19T11:20:15.280Z,1012.45
2017-06-19T11:21:15.285Z,1012.43
2017-06-19T11:22:15.292Z,1012.38
2017-06-19T11:23:15.300Z,1012.37
2017-06-19T11:24:15.306Z,1012.34
2017-06-19T11:25:15.333Z,1012.31
2017-06-19T11:26:15.323Z,1012.33
2017-06-19T11:27:15.325Z,1012.28
2017-06-19T11:28:15.332Z,1012.29
2017-06-19T11:29:15.340Z,1012.24
2017-06-19T11:30:15.551Z,1012.25
2017-06-19T11:31:15.353Z,1012.26
2017-06-19T11:32:15.359Z,1012.28
2017-06-19T11:33:15.366Z,1012.25
2017-06-19T11:34:15.374Z,1012.28
2017-06-19T11:35:15.381Z,1012.28
2017-06-19T11:36:15.388Z,1012.28
2017-06-19T11:37:15.398Z,1012.26
2017-06-19T11:38:15.401Z,1012.25
2017-06-19T11:39:15.407Z,1012.23
2017-06-19T11:40:15.415Z,1012.2
2017-06-19T11:41:15.421Z,1012.24
2017-06-19T11:42:15.427Z,1012.16
2017-06-19T11:43:15.434Z,1012.13
2017-06-19T11:44:15.441Z,1012.13
2017-06-19T11:45:15.447Z,1012.2
2017-06-19T11:46:15.453Z,1012.18
2017-06-19T11:47:15.462Z,1012.21
2017-06-19T11:48:15.469Z,1012.19
2017-06-19T11:49:15.475Z,1012.15
2017-06-19T11:50:15.482Z,1012.15
2017-06-19T11:51:15.489Z,1012.16
2017-06-19T11:52:15.496Z,1012.18
2017-06-19T11:53:15.502Z,1012.14
2017-06-19T11:54:15.508Z,1012.14
2017-06-19T11:55:15.516Z,1012.15
2017-06-19T11:56:15.521Z,1012.12
2017-06-19T11:57:15.531Z,1012.07
2017-06-19T11:58:15.536Z,1012.06
2017-06-19T11:59:15.542Z,1012.02
2017-06-19T12:00:15.548Z,1012.02
2017-06-19T12:01:15.557Z,1012.01
2017-06-19T12:02:15.563Z,1011.94
2017-06-19T12:03:15.570Z,1011.92
2017-06-19T12:04:15.578Z,1011.89
2017-06-19T12:05:15.585Z,1011.9
2017-06-19T12:06:15.590Z,1011.93
2017-06-19T12:07:15.599Z,1011.89
2017-06-19T12:08:15.606Z,1011.9